Time;durP1;ratioP1;P1;durP2;ratioP2;P2;SDS_P1;SDS_P2;PMS_P1;PMS_P2;Temp;Humidity;BMP_temperature;BMP_pressure;BME280_temperature;BME280_humidity;BME280_pressure;Samples;Min_cycle;Max_cycle;Signal;HPM_P1;HPM_P2
2023/09/03 00:02:28;;;;;;;30.63;15.35;;;23.40;96.50;;;;;;5033739;28;20404;-69
2023/09/03 00:05:33;;;;;;;27.02;14.27;;;23.40;96.40;;;;;;5033808;28;20036;-69
2023/09/03 00:08:37;;;;;;;30.98;14.70;;;23.40;96.30;;;;;;5034031;28;20596;-68
2023/09/03 00:11:41;;;;;;;46.05;25.15;;;23.30;96.10;;;;;;5033899;28;20646;-69
2023/09/03 00:14:45;;;;;;;30.58;19.95;;;23.20;96.20;;;;;;5032702;28;20052;-69
2023/09/03 00:17:48;;;;;;;26.05;16.60;;;23.10;96.10;;;;;;5033817;28;20064;-69
2023/09/03 00:21:01;;;;;;;33.45;17.67;;;23.10;96.30;;;;;;5033430;28;20041;-68
2023/09/03 00:24:05;;;;;;;28.35;17.13;;;23.40;96.40;;;;;;5033545;28;20381;-69
2023/09/03 00:27:09;;;;;;;23.95;15.18;;;23.10;96.20;;;;;;5033233;28;20045;-69
2023/09/03 00:30:13;;;;;;;22.73;13.52;;;23.00;96.50;;;;;;5033389;28;20049;-69
2023/09/03 00:33:20;;;;;;;27.70;13.80;;;23.00;96.50;;;;;;5032099;28;20076;-69
2023/09/03 00:36:24;;;;;;;23.48;13.65;;;22.20;96.30;;;;;;5032627;28;20033;-69
2023/09/03 00:39:29;;;;;;;26.75;14.80;;;23.00;96.40;;;;;;5021281;28;20527;-69
2023/09/03 00:42:34;;;;;;;24.48;15.35;;;23.20;96.40;;;;;;5033060;28;20405;-69
2023/09/03 00:45:41;;;;;;;26.00;14.68;;;22.90;96.30;;;;;;5033317;28;20048;-68
2023/09/03 00:48:45;;;;;;;23.30;13.15;;;22.90;96.40;;;;;;5032340;28;20064;-69
2023/09/03 00:51:52;;;;;;;23.10;12.57;;;22.80;96.50;;;;;;5032280;28;20100;-69
2023/09/03 00:54:57;;;;;;;26.40;12.70;;;22.90;96.60;;;;;;5033116;28;20048;-69
2023/09/03 00:58:01;;;;;;;21.58;13.68;;;22.90;96.60;;;;;;5032117;28;20045;-69
2023/09/03 01:01:06;;;;;;;20.63;13.45;;;22.70;96.40;;;;;;5031853;28;20048;-68
2023/09/03 01:04:10;;;;;;;26.60;13.18;;;22.80;96.60;;;;;;5033032;28;20061;-69
2023/09/03 01:07:16;;;;;;;25.02;13.07;;;22.80;96.20;;;;;;5032904;28;20040;-67
2023/09/03 01:10:22;;;;;;;25.65;13.45;;;22.60;96.20;;;;;;5032817;28;20401;-69
2023/09/03 01:13:49;;;;;;;21.05;13.15;;;22.70;96.70;;;;;;5032481;28;20044;-69
2023/09/03 01:17:08;;;;;;;25.27;13.07;;;24.60;97.20;;;;;;5027136;28;20044;-68
2023/09/03 01:20:18;;;;;;;31.13;14.40;;;22.80;96.70;;;;;;5032653;28;20563;-69
2023/09/03 01:23:37;;;;;;;27.15;15.55;;;22.70;96.70;;;;;;5032153;28;20070;-68
2023/09/03 01:26:54;;;;;;;26.27;15.30;;;22.80;96.90;;;;;;5032335;28;20052;-68
2023/09/03 01:29:59;;;;;;;29.25;15.65;;;22.80;97.00;;;;;;5032208;28;20045;-68
2023/09/03 01:33:04;;;;;;;28.73;14.45;;;22.90;97.10;;;;;;5031244;28;20103;-68
2023/09/03 01:36:09;;;;;;;30.13;16.02;;;23.00;97.10;;;;;;5032338;28;20048;-68
2023/09/03 01:39:16;;;;;;;25.20;15.32;;;22.90;96.90;;;;;;5032291;28;20041;-69
2023/09/03 01:42:20;;;;;;;30.58;16.30;;;22.90;96.90;;;;;;5031984;28;20204;-69
2023/09/03 01:45:35;;;;;;;25.85;15.57;;;22.90;96.70;;;;;;5032871;28;20036;-68
2023/09/03 01:49:21;;;;;;;25.85;14.88;;;22.80;96.90;;;;;;5032018;28;20052;-68
2023/09/03 01:52:58;;;;;;;21.35;10.57;;;22.80;96.60;;;;;;5010676;28;20037;-68
2023/09/03 01:56:03;;;;;;;21.33;9.63;;;22.70;96.40;;;;;;5032418;28;20060;-68
2023/09/03 01:59:18;;;;;;;19.70;9.80;;;22.40;96.30;;;;;;5031053;28;20044;-69
2023/09/03 02:02:24;;;;;;;24.25;10.05;;;22.50;96.50;;;;;;5030943;28;20052;-69
2023/09/03 02:05:29;;;;;;;22.60;9.98;;;23.50;96.80;;;;;;5031009;28;20057;-69
2023/09/03 02:08:33;;;;;;;26.73;10.63;;;22.40;97.00;;;;;;5030982;28;20048;-68
2023/09/03 02:11:36;;;;;;;17.85;10.40;;;22.30;97.20;;;;;;5030534;28;20056;-68
2023/09/03 02:14:40;;;;;;;16.58;10.70;;;20.70;96.80;;;;;;5030931;28;20052;-68
2023/09/03 02:17:44;;;;;;;28.38;11.50;;;22.40;97.00;;;;;;5031520;28;20071;-68
2023/09/03 02:20:48;;;;;;;20.52;10.88;;;22.30;96.30;;;;;;5031544;28;20057;-68
2023/09/03 02:23:53;;;;;;;28.73;11.23;;;22.30;96.30;;;;;;5031242;28;20048;-68
2023/09/03 02:26:58;;;;;;;17.33;10.18;;;22.30;96.80;;;;;;5030715;28;20055;-68
2023/09/03 02:30:04;;;;;;;18.45;11.02;;;22.20;96.80;;;;;;5030341;28;20041;-69
2023/09/03 02:33:08;;;;;;;15.75;10.60;;;22.00;96.80;;;;;;5030825;28;20504;-68
2023/09/03 02:36:12;;;;;;;22.67;12.73;;;22.00;97.00;;;;;;5053111;28;20117;-69
2023/09/03 02:39:16;;;;;;;19.42;11.00;;;22.00;97.00;;;;;;5031188;28;20052;-68
2023/09/03 02:42:20;;;;;;;14.30;10.27;;;22.00;96.90;;;;;;5030920;28;20512;-69
2023/09/03 02:45:24;;;;;;;23.35;11.48;;;21.90;96.60;;;;;;5031208;28;20041;-68
2023/09/03 02:48:28;;;;;;;23.40;10.70;;;21.70;96.80;;;;;;5030166;28;20048;-68
2023/09/03 02:51:32;;;;;;;17.65;11.13;;;21.70;96.90;;;;;;5030121;28;20045;-68
2023/09/03 02:54:36;;;;;;;23.08;9.68;;;21.60;97.00;;;;;;5030745;28;20049;-68
2023/09/03 02:57:40;;;;;;;20.92;11.18;;;21.60;96.90;;;;;;5030853;28;20397;-68
2023/09/03 03:00:44;;;;;;;23.73;10.45;;;21.50;96.90;;;;;;5029954;28;20044;-68
2023/09/03 03:03:49;;;;;;;21.50;10.88;;;21.40;96.90;;;;;;5029729;28;20052;-68
2023/09/03 03:06:52;;;;;;;29.00;12.82;;;21.40;97.30;;;;;;5030711;28;20041;-68
2023/09/03 03:10:00;;;;;;;18.23;11.10;;;21.40;97.30;;;;;;5030903;28;20064;-68
2023/09/03 03:13:04;;;;;;;18.00;11.43;;;21.20;97.30;;;;;;5030067;28;20045;-69
2023/09/03 03:16:10;;;;;;;17.00;10.05;;;21.20;97.50;;;;;;5029850;28;20053;-68
2023/09/03 03:19:14;;;;;;;15.05;9.98;;;21.20;97.00;;;;;;5030214;28;20394;-69
2023/09/03 03:22:18;;;;;;;19.83;11.15;;;21.20;97.20;;;;;;5029715;28;20041;-67
2023/09/03 03:25:22;;;;;;;21.00;10.82;;;21.30;97.10;;;;;;5030778;28;20125;-69
2023/09/03 03:28:27;;;;;;;27.05;11.00;;;21.20;97.20;;;;;;5029906;28;20044;-69
2023/09/03 03:31:31;;;;;;;17.30;9.23;;;21.20;96.90;;;;;;5029718;28;20049;-68
2023/09/03 03:34:41;;;;;;;22.90;10.20;;;21.20;97.10;;;;;;5029795;28;20048;-70
2023/09/03 03:37:45;;;;;;;15.80;9.30;;;21.20;97.20;;;;;;5029969;28;20064;-69
2023/09/03 03:40:50;;;;;;;17.33;9.95;;;21.20;97.20;;;;;;5029750;28;20037;-69
2023/09/03 03:43:55;;;;;;;15.68;10.10;;;21.10;97.20;;;;;;5029594;28;20049;-69
2023/09/03 03:47:02;;;;;;;22.83;11.00;;;21.00;97.40;;;;;;5018968;28;20045;-69
2023/09/03 03:50:08;;;;;;;19.15;11.52;;;21.00;97.50;;;;;;5033223;28;20049;-69
2023/09/03 03:53:12;;;;;;;17.52;10.13;;;21.20;97.60;;;;;;5034167;28;20446;-68
2023/09/03 03:56:16;;;;;;;18.27;10.15;;;21.10;97.70;;;;;;5033889;28;20485;-69
2023/09/03 03:59:19;;;;;;;17.17;10.75;;;21.10;97.40;;;;;;5033282;28;20052;-69
2023/09/03 04:02:23;;;;;;;22.83;11.15;;;20.90;97.30;;;;;;5033905;28;20072;-70
2023/09/03 04:05:28;;;;;;;14.95;10.07;;;21.00;97.30;;;;;;5033986;28;20046;-68
2023/09/03 04:08:34;;;;;;;18.88;10.25;;;21.10;97.50;;;;;;5033216;28;20045;-68
2023/09/03 04:11:38;;;;;;;16.55;10.15;;;21.00;96.70;;;;;;5033654;28;20048;-69
2023/09/03 04:14:45;;;;;;;15.93;9.63;;;21.00;97.00;;;;;;5033179;28;20048;-68
2023/09/03 04:17:49;;;;;;;19.67;10.35;;;21.00;96.90;;;;;;5032660;28;20044;-68
2023/09/03 04:20:55;;;;;;;16.50;10.60;;;20.90;97.00;;;;;;5033796;28;20508;-68
2023/09/03 04:24:02;;;;;;;19.35;10.15;;;21.00;96.70;;;;;;5032890;28;20056;-68
2023/09/03 04:27:06;;;;;;;16.27;9.88;;;20.80;97.10;;;;;;5032670;28;20045;-69
2023/09/03 04:30:11;;;;;;;19.15;11.43;;;20.70;96.60;;;;;;5032687;28;20068;-69
2023/09/03 04:33:15;;;;;;;20.75;11.48;;;20.80;96.80;;;;;;5032212;28;20057;-68
2023/09/03 04:36:19;;;;;;;15.93;10.57;;;20.80;96.90;;;;;;5032500;28;20044;-67
2023/09/03 04:39:24;;;;;;;17.92;10.88;;;20.70;96.80;;;;;;5032701;28;20388;-69
2023/09/03 04:42:29;;;;;;;18.30;10.73;;;20.70;96.90;;;;;;5032121;28;20519;-69
2023/09/03 04:45:33;;;;;;;18.42;10.20;;;20.70;96.90;;;;;;5033194;28;20040;-68
2023/09/03 04:48:41;;;;;;;18.33;12.65;;;20.80;96.90;;;;;;5032415;28;20504;-69
2023/09/03 04:51:46;;;;;;;25.38;16.48;;;20.70;96.90;;;;;;5032333;28;20512;-69
2023/09/03 04:54:50;;;;;;;26.38;16.42;;;20.60;96.20;;;;;;5032857;28;20393;-69
2023/09/03 04:57:54;;;;;;;25.25;14.30;;;20.50;96.00;;;;;;5032346;28;20052;-69
2023/09/03 05:00:59;;;;;;;21.77;12.00;;;20.60;96.10;;;;;;5031348;28;20049;-69
2023/09/03 05:04:05;;;;;;;19.83;12.07;;;20.80;96.20;;;;;;5031967;28;20072;-68
2023/09/03 05:07:09;;;;;;;22.63;13.10;;;20.90;96.40;;;;;;5020349;28;20101;-69
2023/09/03 05:10:14;;;;;;;20.20;12.02;;;21.00;96.20;;;;;;5032853;28;20044;-69
2023/09/03 05:13:18;;;;;;;22.85;11.18;;;21.00;95.70;;;;;;5031668;28;20696;-69
2023/09/03 05:16:23;;;;;;;19.38;11.02;;;21.00;95.70;;;;;;5032579;28;20465;-69
2023/09/03 05:19:27;;;;;;;29.25;16.23;;;21.10;95.00;;;;;;5031773;28;20045;-69
2023/09/03 05:22:33;;;;;;;35.92;23.50;;;21.20;95.30;;;;;;5031422;28;20140;-68
2023/09/03 05:25:37;;;;;;;29.95;21.27;;;21.50;94.70;;;;;;5031482;28;20041;-69
2023/09/03 05:28:41;;;;;;;31.80;17.63;;;21.60;94.80;;;;;;5032346;28;20048;-69
2023/09/03 05:31:47;;;;;;;31.40;12.93;;;21.90;93.80;;;;;;5031266;28;20389;-69
2023/09/03 05:34:52;;;;;;;19.73;11.25;;;22.20;93.30;;;;;;5031533;28;20056;-68
2023/09/03 05:37:56;;;;;;;20.13;11.15;;;22.50;92.70;;;;;;5031344;28;20045;-69
2023/09/03 05:41:02;;;;;;;16.55;9.60;;;23.10;91.60;;;;;;5032315;28;20077;-67
2023/09/03 05:44:09;;;;;;;19.92;10.02;;;23.30;91.70;;;;;;5031026;28;20055;-68
2023/09/03 05:47:18;;;;;;;19.33;10.27;;;25.70;90.90;;;;;;5031396;28;20060;-68
2023/09/03 05:50:23;;;;;;;21.73;13.35;;;25.30;87.60;;;;;;5031321;28;20512;-67
2023/09/03 05:53:27;;;;;;;19.13;11.98;;;26.20;85.70;;;;;;5030855;28;20044;-69
2023/09/03 05:56:31;;;;;;;19.88;13.32;;;26.50;85.00;;;;;;5019838;28;20048;-70
2023/09/03 05:59:35;;;;;;;26.15;13.52;;;26.70;84.00;;;;;;5019451;28;20044;-68
2023/09/03 06:02:40;;;;;;;20.75;11.73;;;26.60;83.50;;;;;;5030690;28;20401;-68
2023/09/03 06:05:43;;;;;;;19.63;13.18;;;26.50;84.70;;;;;;5053700;28;20044;-68
2023/09/03 06:08:47;;;;;;;19.75;12.60;;;26.40;84.50;;;;;;5030823;28;20048;-69
2023/09/03 06:11:51;;;;;;;20.45;12.27;;;26.30;85.20;;;;;;5030722;28;20044;-68
2023/09/03 06:14:55;;;;;;;20.30;11.48;;;26.30;85.40;;;;;;5031714;28;20063;-68
2023/09/03 06:17:59;;;;;;;18.05;10.35;;;26.40;84.30;;;;;;5031307;28;20584;-68
2023/09/03 06:21:03;;;;;;;19.88;11.15;;;26.60;83.20;;;;;;5031393;28;20389;-68
2023/09/03 06:24:07;;;;;;;16.77;10.82;;;26.80;83.00;;;;;;5031083;28;20064;-68
2023/09/03 06:27:11;;;;;;;20.92;11.52;;;27.10;82.50;;;;;;5031084;28;20049;-71
2023/09/03 06:30:15;;;;;;;17.15;10.38;;;27.20;82.40;;;;;;5031094;28;20040;-69
2023/09/03 06:33:19;;;;;;;24.10;11.70;;;27.30;82.30;;;;;;5030902;28;20507;-69
2023/09/03 06:36:24;;;;;;;15.30;11.00;;;27.60;81.60;;;;;;5031314;28;20048;-68
2023/09/03 06:39:30;;;;;;;19.98;11.35;;;27.80;81.70;;;;;;5031399;28;20041;-68
2023/09/03 06:42:34;;;;;;;24.63;13.20;;;27.90;81.50;;;;;;5030963;28;20540;-69
2023/09/03 06:45:38;;;;;;;23.08;11.40;;;27.90;82.30;;;;;;5031078;28;20534;-68
2023/09/03 06:48:43;;;;;;;28.38;11.95;;;28.10;82.00;;;;;;5031136;28;20052;-70
2023/09/03 06:51:46;;;;;;;28.90;12.50;;;28.40;81.40;;;;;;5030279;28;20063;-68
2023/09/03 06:54:50;;;;;;;25.30;12.75;;;28.50;80.90;;;;;;5031224;28;20048;-68
2023/09/03 06:57:54;;;;;;;26.83;12.32;;;28.70;80.90;;;;;;5031082;28;20044;-70
2023/09/03 07:00:58;;;;;;;22.92;12.02;;;28.80;81.70;;;;;;5030866;28;20489;-70
2023/09/03 07:04:02;;;;;;;19.70;11.50;;;28.90;81.80;;;;;;5030724;28;20532;-70
2023/09/03 07:07:06;;;;;;;22.98;11.25;;;29.00;81.60;;;;;;5031095;28;20049;-69
2023/09/03 07:10:10;;;;;;;17.42;10.90;;;29.40;80.80;;;;;;5030969;28;20053;-69
2023/09/03 07:13:14;;;;;;;21.40;10.85;;;29.50;78.80;;;;;;5030985;28;20037;-69
2023/09/03 07:16:19;;;;;;;17.08;10.57;;;29.70;78.50;;;;;;5030683;28;20052;-68
2023/09/03 07:19:23;;;;;;;23.10;9.80;;;30.00;78.30;;;;;;5031076;28;20044;-70
2023/09/03 07:22:27;;;;;;;19.17;9.80;;;30.20;76.50;;;;;;5030902;28;20040;-70
2023/09/03 07:25:34;;;;;;;19.42;10.25;;;30.50;74.20;;;;;;5034016;28;20052;-72
2023/09/03 07:28:39;;;;;;;14.75;9.02;;;30.30;74.70;;;;;;5034808;28;20049;-70
2023/09/03 07:31:43;;;;;;;20.65;10.40;;;30.20;73.80;;;;;;5034663;28;20044;-70
2023/09/03 07:34:48;;;;;;;25.38;12.77;;;30.30;75.00;;;;;;5034279;28;20515;-71
2023/09/03 07:37:52;;;;;;;17.30;9.63;;;30.10;74.80;;;;;;5033167;28;20041;-70
2023/09/03 07:40:56;;;;;;;19.60;9.73;;;30.40;74.40;;;;;;5034544;28;20136;-72
2023/09/03 07:44:00;;;;;;;20.55;11.55;;;30.60;73.30;;;;;;5033730;28;20409;-70
2023/09/03 07:47:04;;;;;;;22.10;9.95;;;30.60;72.80;;;;;;5032493;28;20040;-71
2023/09/03 07:50:09;;;;;;;17.35;9.93;;;30.80;73.40;;;;;;5032832;28;20107;-71
2023/09/03 07:53:13;;;;;;;18.95;9.88;;;30.90;71.30;;;;;;5033493;28;20044;-71
2023/09/03 07:56:17;;;;;;;17.70;9.02;;;30.80;72.40;;;;;;5033679;28;20045;-72
2023/09/03 07:59:21;;;;;;;22.40;9.82;;;31.00;71.60;;;;;;5033465;28;20508;-71
2023/09/03 08:02:26;;;;;;;16.92;8.52;;;31.10;70.60;;;;;;5033520;28;20064;-71
2023/09/03 08:05:29;;;;;;;19.15;7.55;;;31.30;70.30;;;;;;5034126;28;20045;-71
2023/09/03 08:08:34;;;;;;;16.80;8.18;;;31.20;69.50;;;;;;5033944;28;20040;-71
2023/09/03 08:11:38;;;;;;;13.98;7.45;;;31.40;69.90;;;;;;5033686;28;20516;-71
2023/09/03 08:14:43;;;;;;;17.20;7.65;;;31.70;69.00;;;;;;5033827;28;20045;-72
2023/09/03 08:17:48;;;;;;;17.50;6.93;;;31.80;68.70;;;;;;5034010;28;20500;-71
2023/09/03 08:20:52;;;;;;;18.40;7.78;;;31.70;67.00;;;;;;5033668;28;20056;-71
2023/09/03 08:23:56;;;;;;;21.48;6.70;;;31.70;67.20;;;;;;5034246;28;20071;-70
2023/09/03 08:27:00;;;;;;;11.77;6.15;;;31.60;67.80;;;;;;5033895;28;20044;-72
2023/09/03 08:30:05;;;;;;;16.88;6.07;;;31.70;68.50;;;;;;5033790;28;20048;-71
2023/09/03 08:33:09;;;;;;;18.60;5.72;;;31.80;67.30;;;;;;5033327;28;20049;-71
2023/09/03 08:36:13;;;;;;;15.02;5.47;;;31.90;67.00;;;;;;5032407;28;20053;-71
2023/09/03 08:39:17;;;;;;;17.77;6.00;;;31.90;67.00;;;;;;5033605;28;20048;-72
2023/09/03 08:42:22;;;;;;;16.33;5.38;;;32.00;65.10;;;;;;5033185;28;20412;-71
2023/09/03 08:45:31;;;;;;;22.67;5.90;;;32.00;65.00;;;;;;5033036;28;20501;-70
2023/09/03 08:48:35;;;;;;;18.50;4.80;;;31.90;64.30;;;;;;5033059;28;20041;-70
2023/09/03 08:51:39;;;;;;;19.00;4.90;;;31.90;64.50;;;;;;5032973;28;20048;-71
2023/09/03 08:54:43;;;;;;;8.65;4.63;;;31.70;62.10;;;;;;5033239;28;20056;-70
2023/09/03 08:57:47;;;;;;;14.32;4.93;;;31.50;62.70;;;;;;5033194;28;20045;-70
2023/09/03 09:00:55;;;;;;;14.80;5.47;;;31.50;62.50;;;;;;5032700;28;20068;-70
2023/09/03 09:04:02;;;;;;;20.42;5.40;;;31.60;62.20;;;;;;5032227;28;20513;-71
2023/09/03 09:07:07;;;;;;;10.10;4.60;;;31.60;61.40;;;;;;5032527;28;20508;-70
2023/09/03 09:10:16;;;;;;;8.77;4.97;;;31.70;61.50;;;;;;5032992;28;20040;-72
2023/09/03 09:13:24;;;;;;;9.70;3.97;;;31.90;60.90;;;;;;5032733;28;20064;-71
2023/09/03 09:16:28;;;;;;;11.05;4.28;;;31.90;59.30;;;;;;5032628;28;20528;-71
2023/09/03 09:19:32;;;;;;;13.98;4.10;;;31.70;58.90;;;;;;5032699;28;20092;-71
2023/09/03 09:22:51;;;;;;;10.57;4.47;;;31.60;58.30;;;;;;5032489;28;20044;-71
2023/09/03 09:25:58;;;;;;;8.57;4.18;;;31.70;59.20;;;;;;5032474;28;20120;-70
2023/09/03 09:29:03;;;;;;;14.10;4.30;;;31.60;58.20;;;;;;5032431;28;20654;-70
2023/09/03 09:32:20;;;;;;;11.10;4.63;;;31.60;58.90;;;;;;5032202;28;20052;-70
2023/09/03 09:35:25;;;;;;;10.43;3.85;;;31.50;57.50;;;;;;5032483;28;20048;-71
2023/09/03 09:38:37;;;;;;;9.40;4.55;;;31.50;57.20;;;;;;5032114;28;20120;-71
2023/09/03 09:41:41;;;;;;;7.63;4.15;;;31.60;58.60;;;;;;5032054;28;20040;-71
2023/09/03 09:44:50;;;;;;;7.75;3.67;;;31.70;58.00;;;;;;5031798;28;20052;-70
2023/09/03 09:48:08;;;;;;;9.20;4.22;;;31.80;57.00;;;;;;5031895;28;20479;-70
2023/09/03 09:51:13;;;;;;;9.25;3.22;;;31.90;57.60;;;;;;5032001;28;20497;-70
2023/09/03 09:54:17;;;;;;;7.03;3.63;;;32.10;55.80;;;;;;5032024;28;20056;-70
2023/09/03 09:57:22;;;;;;;7.68;3.85;;;32.20;57.20;;;;;;5031677;28;20040;-70
2023/09/03 10:00:37;;;;;;;8.27;3.55;;;32.40;57.30;;;;;;5031889;28;20052;-71
2023/09/03 10:03:46;;;;;;;6.60;3.50;;;32.50;55.30;;;;;;5030911;28;20516;-70
2023/09/03 10:06:50;;;;;;;8.32;3.03;;;32.50;54.80;;;;;;5031744;28;20056;-70
2023/09/03 10:09:54;;;;;;;8.20;3.15;;;32.60;54.30;;;;;;5031755;28;20041;-69
2023/09/03 10:12:58;;;;;;;4.32;2.95;;;32.50;52.50;;;;;;5031252;28;20442;-71
2023/09/03 10:16:05;;;;;;;5.28;3.17;;;32.30;53.60;;;;;;5031530;28;20049;-71
2023/09/03 10:19:14;;;;;;;8.30;3.30;;;32.30;54.10;;;;;;5031671;28;20044;-71
2023/09/03 10:22:19;;;;;;;5.97;2.40;;;32.30;53.70;;;;;;5031611;28;20433;-72
2023/09/03 10:25:28;;;;;;;4.00;2.55;;;32.40;53.50;;;;;;5031621;28;20064;-71
2023/09/03 10:28:37;;;;;;;4.35;2.92;;;32.50;53.30;;;;;;5030306;28;20500;-71
2023/09/03 10:31:41;;;;;;;7.25;3.10;;;32.70;54.00;;;;;;5031343;28;20048;-71
2023/09/03 10:34:46;;;;;;;3.30;2.80;;;32.60;53.00;;;;;;5031498;28;20060;-70
2023/09/03 10:37:50;;;;;;;8.93;3.08;;;32.60;53.20;;;;;;5031380;28;20068;-71
2023/09/03 10:41:24;;;;;;;5.05;3.22;;;32.40;54.30;;;;;;5030954;28;20041;-71
2023/09/03 10:44:32;;;;;;;3.85;2.95;;;32.30;53.90;;;;;;5030229;28;20041;-70
2023/09/03 10:47:55;;;;;;;4.65;2.70;;;32.30;54.70;;;;;;5031047;28;20045;-71
2023/09/03 10:51:00;;;;;;;4.00;2.75;;;32.30;53.40;;;;;;5030812;28;20045;-70
2023/09/03 10:54:24;;;;;;;4.05;2.45;;;32.30;53.90;;;;;;5030809;28;20045;-70
2023/09/03 10:57:30;;;;;;;6.80;2.70;;;32.40;53.50;;;;;;5030381;28;20048;-71
2023/09/03 11:00:34;;;;;;;9.02;2.85;;;32.30;53.00;;;;;;5041372;28;20052;-71
2023/09/03 11:03:52;;;;;;;6.32;2.50;;;32.20;53.00;;;;;;5030749;28;20056;-70
2023/09/03 11:07:22;;;;;;;4.97;2.45;;;32.00;52.80;;;;;;5030903;28;20492;-70
2023/09/03 11:10:29;;;;;;;4.60;2.92;;;31.90;53.30;;;;;;5030957;28;20056;-70
2023/09/03 11:13:33;;;;;;;6.25;2.75;;;31.90;53.90;;;;;;5031030;28;20045;-71
2023/09/03 11:16:40;;;;;;;3.00;2.10;;;32.00;53.70;;;;;;5029842;28;20052;-70
2023/09/03 11:19:43;;;;;;;3.35;1.90;;;32.10;52.90;;;;;;5031043;28;20044;-71
2023/09/03 11:22:47;;;;;;;5.07;2.17;;;32.20;52.10;;;;;;5030503;28;20048;-70
2023/09/03 11:25:51;;;;;;;3.50;2.30;;;32.20;52.80;;;;;;5030725;28;20128;-71
2023/09/03 11:28:56;;;;;;;3.85;2.55;;;32.30;53.00;;;;;;5029818;28;20044;-71
2023/09/03 11:32:00;;;;;;;7.30;2.47;;;32.20;51.80;;;;;;5030637;28;20056;-70
2023/09/03 11:35:04;;;;;;;6.45;2.33;;;32.10;52.50;;;;;;5030711;28;20052;-71
2023/09/03 11:38:09;;;;;;;10.95;3.13;;;32.10;52.80;;;;;;5030556;28;20052;-70
2023/09/03 11:41:16;;;;;;;5.60;2.58;;;32.20;52.90;;;;;;5030426;28;20044;-70
2023/09/03 11:44:21;;;;;;;4.82;2.60;;;32.20;51.80;;;;;;5030345;28;20052;-71
2023/09/03 11:47:25;;;;;;;3.97;2.20;;;32.20;51.50;;;;;;5030526;28;20044;-70
2023/09/03 11:50:29;;;;;;;5.63;2.33;;;32.20;52.90;;;;;;5030623;28;20052;-71
2023/09/03 11:53:41;;;;;;;5.75;3.30;;;32.20;52.30;;;;;;5030447;28;20413;-69
2023/09/03 11:56:46;;;;;;;6.40;4.22;;;32.30;52.40;;;;;;5030718;28;20056;-71
2023/09/03 11:59:49;;;;;;;12.93;9.93;;;32.30;52.20;;;;;;5029835;28;20064;-71
2023/09/03 12:02:54;;;;;;;6.53;3.30;;;32.30;52.80;;;;;;5030129;28;20044;-70
2023/09/03 12:05:59;;;;;;;17.70;14.88;;;32.30;51.90;;;;;;5030507;28;20049;-70
2023/09/03 12:09:03;;;;;;;5.40;3.75;;;32.30;52.10;;;;;;5030223;28;20408;-70
2023/09/03 12:12:08;;;;;;;6.03;3.45;;;32.30;52.10;;;;;;5033088;28;20040;-70
2023/09/03 12:15:17;;;;;;;4.30;3.00;;;32.30;52.50;;;;;;5033595;28;20041;-70
2023/09/03 12:18:21;;;;;;;4.22;2.70;;;32.30;52.10;;;;;;5033928;28;20041;-70
2023/09/03 12:21:33;;;;;;;3.38;3.05;;;32.40;52.00;;;;;;5033872;28;20504;-71
2023/09/03 12:24:36;;;;;;;3.70;2.90;;;32.30;51.50;;;;;;5033473;28;20056;-71
2023/09/03 12:27:49;;;;;;;6.65;3.20;;;32.30;52.10;;;;;;5033675;28;20045;-70
2023/09/03 12:31:01;;;;;;;6.55;3.40;;;32.30;52.30;;;;;;5033795;28;20053;-71
2023/09/03 12:34:06;;;;;;;7.95;3.13;;;32.30;52.40;;;;;;5032615;28;20052;-70
2023/09/03 12:37:10;;;;;;;4.10;3.00;;;32.30;53.10;;;;;;5033408;28;20049;-71
2023/09/03 12:40:14;;;;;;;5.97;2.20;;;32.30;52.50;;;;;;5033638;28;20044;-71
2023/09/03 12:43:17;;;;;;;5.22;2.30;;;32.30;54.10;;;;;;5033408;28;20048;-71
2023/09/03 12:46:22;;;;;;;5.72;2.20;;;32.30;53.70;;;;;;5033586;28;20048;-71
2023/09/03 12:49:27;;;;;;;3.05;2.10;;;32.30;54.00;;;;;;5033500;28;20040;-70
2023/09/03 12:52:31;;;;;;;4.85;2.03;;;32.30;54.20;;;;;;5033046;28;20049;-70
2023/09/03 12:55:35;;;;;;;3.38;2.22;;;32.30;54.10;;;;;;5033027;28;20504;-70
2023/09/03 12:58:39;;;;;;;5.75;2.67;;;32.30;54.90;;;;;;5033022;28;20060;-71
2023/09/03 13:01:43;;;;;;;5.93;3.03;;;32.30;54.30;;;;;;5032783;28;20048;-70
2023/09/03 13:04:47;;;;;;;3.20;2.30;;;32.20;54.60;;;;;;5032912;28;20527;-70
2023/09/03 13:07:51;;;;;;;8.05;2.70;;;32.20;54.40;;;;;;5033076;28;20060;-69
2023/09/03 13:10:55;;;;;;;7.38;2.13;;;32.20;54.50;;;;;;5032623;28;20053;-70
2023/09/03 13:13:59;;;;;;;5.28;2.42;;;32.30;55.10;;;;;;5032898;28;20044;-71
2023/09/03 13:17:03;;;;;;;4.70;2.33;;;32.30;54.00;;;;;;5032490;28;20045;-69
2023/09/03 13:20:08;;;;;;;2.88;2.13;;;32.30;54.60;;;;;;5032808;28;20120;-70
2023/09/03 13:23:12;;;;;;;4.25;2.25;;;32.30;54.80;;;;;;5032281;28;20049;-69
2023/09/03 13:26:16;;;;;;;3.33;2.20;;;32.20;54.90;;;;;;5032590;28;20377;-70
2023/09/03 13:29:20;;;;;;;3.63;1.92;;;32.30;54.70;;;;;;5032358;28;20074;-71
2023/09/03 13:32:25;;;;;;;4.85;1.75;;;32.30;53.80;;;;;;5032041;28;20060;-69
2023/09/03 13:35:29;;;;;;;2.97;1.88;;;32.30;54.80;;;;;;5031511;28;20044;-69
2023/09/03 13:38:33;;;;;;;2.10;1.73;;;32.30;55.10;;;;;;5032263;28;20049;-70
2023/09/03 13:41:37;;;;;;;6.95;2.03;;;32.30;55.40;;;;;;5032186;28;20040;-69
2023/09/03 13:44:40;;;;;;;8.80;3.03;;;32.20;55.80;;;;;;5031889;28;20409;-70
2023/09/03 13:47:44;;;;;;;5.95;3.33;;;32.20;59.60;;;;;;5031965;28;20390;-69
2023/09/03 13:50:49;;;;;;;7.32;3.30;;;32.10;60.70;;;;;;5031844;28;20041;-69
2023/09/03 13:53:55;;;;;;;6.47;3.30;;;32.00;61.40;;;;;;5031902;28;20405;-70
2023/09/03 13:56:58;;;;;;;8.52;3.53;;;32.00;61.90;;;;;;5032064;28;20045;-70
2023/09/03 14:00:06;;;;;;;8.80;4.03;;;32.00;62.90;;;;;;5031794;28;20398;-71
2023/09/03 14:03:10;;;;;;;4.28;3.03;;;31.90;63.00;;;;;;5031729;28;20397;-70
2023/09/03 14:06:16;;;;;;;15.10;3.55;;;31.80;63.30;;;;;;5034424;28;20052;-71
2023/09/03 14:09:20;;;;;;;7.40;3.65;;;31.80;63.20;;;;;;5031605;28;20040;-70
2023/09/03 14:12:24;;;;;;;13.18;3.50;;;31.70;62.70;;;;;;5031588;28;20048;-69
2023/09/03 14:15:32;;;;;;;6.50;3.30;;;31.60;62.60;;;;;;5031811;28;20048;-70
2023/09/03 14:18:36;;;;;;;6.78;3.58;;;31.50;63.30;;;;;;5031850;28;20050;-69
2023/09/03 14:21:40;;;;;;;10.57;3.75;;;31.40;64.40;;;;;;5031493;28;20048;-71
2023/09/03 14:24:45;;;;;;;5.43;3.67;;;31.40;66.80;;;;;;5031324;28;20441;-70
2023/09/03 14:27:49;;;;;;;8.25;3.42;;;31.30;67.40;;;;;;5031640;28;20039;-71
2023/09/03 14:30:53;;;;;;;11.57;3.72;;;31.20;64.60;;;;;;5030353;28;20037;-70
2023/09/03 14:33:56;;;;;;;9.60;3.80;;;31.10;66.60;;;;;;5030395;28;20057;-70
2023/09/03 14:37:01;;;;;;;8.45;3.70;;;31.10;67.50;;;;;;5031207;28;20504;-69
2023/09/03 14:40:05;;;;;;;7.60;3.50;;;31.10;67.00;;;;;;5031400;28;20064;-70
2023/09/03 14:43:09;;;;;;;5.15;3.13;;;31.00;66.10;;;;;;5031168;28;20052;-70
2023/09/03 14:46:13;;;;;;;6.60;3.30;;;31.00;66.80;;;;;;5031210;28;20052;-70
2023/09/03 14:49:42;;;;;;;8.30;3.45;;;30.90;67.10;;;;;;5031474;28;20040;-70
2023/09/03 14:52:48;;;;;;;9.45;3.40;;;31.00;69.00;;;;;;5031049;28;20048;-70
2023/09/03 14:55:52;;;;;;;6.28;3.03;;;30.90;69.20;;;;;;5031286;28;20041;-70
2023/09/03 14:59:00;;;;;;;4.07;2.85;;;30.90;69.20;;;;;;5030942;28;20052;-70
2023/09/03 15:02:04;;;;;;;7.78;3.22;;;30.90;68.80;;;;;;5030992;28;20037;-69
2023/09/03 15:05:08;;;;;;;5.97;3.00;;;30.80;67.80;;;;;;5030914;28;20055;-70
2023/09/03 15:08:12;;;;;;;5.53;2.55;;;30.80;67.40;;;;;;5031114;28;20040;-70
2023/09/03 15:11:17;;;;;;;4.25;2.72;;;30.80;67.40;;;;;;5030960;28;20060;-71
2023/09/03 15:14:21;;;;;;;6.18;2.60;;;30.70;66.40;;;;;;5030839;28;20045;-70
2023/09/03 15:17:25;;;;;;;9.35;3.15;;;30.70;66.30;;;;;;5029965;28;20064;-70
2023/09/03 15:20:29;;;;;;;6.47;2.97;;;30.70;66.70;;;;;;5041503;28;20417;-70
2023/09/03 15:23:34;;;;;;;13.93;3.20;;;30.70;67.20;;;;;;5031093;28;20040;-69
2023/09/03 15:26:38;;;;;;;9.38;2.75;;;30.70;67.80;;;;;;5030797;28;20636;-69
2023/09/03 15:29:42;;;;;;;9.65;2.95;;;30.60;68.30;;;;;;5030914;28;20041;-70
2023/09/03 15:32:46;;;;;;;8.48;3.10;;;30.50;68.40;;;;;;5030746;28;20048;-69
2023/09/03 15:35:50;;;;;;;7.05;2.65;;;30.50;68.10;;;;;;5030603;28;20049;-70
2023/09/03 15:38:54;;;;;;;4.28;2.75;;;30.50;67.80;;;;;;5030864;28;20040;-70
2023/09/03 15:41:58;;;;;;;12.45;3.40;;;30.40;68.30;;;;;;5030768;28;20046;-71
2023/09/03 15:45:02;;;;;;;5.97;2.88;;;30.40;68.70;;;;;;5033067;28;20052;-71
2023/09/03 15:48:07;;;;;;;9.70;3.42;;;30.40;69.60;;;;;;5033707;28;20413;-70
2023/09/03 15:51:11;;;;;;;9.68;3.05;;;30.40;70.70;;;;;;5034228;28;20048;-70
2023/09/03 15:54:15;;;;;;;7.70;3.47;;;30.30;71.20;;;;;;5034298;28;20045;-71